createdAt,value
2022-08-17T00:01:52.896Z,13.80
2022-08-17T00:04:24.738Z,13.85
2022-08-17T00:09:23.062Z,12.80
2022-08-17T00:12:41.925Z,14.77
2022-08-17T00:14:42.153Z,15.77
2022-08-17T00:17:11.268Z,16.73
2022-08-17T00:19:42.722Z,12.80
2022-08-17T00:22:32.814Z,17.60
2022-08-17T00:25:03.613Z,13.43
2022-08-17T00:27:35.343Z,14.85
2022-08-17T00:30:06.658Z,14.98
2022-08-17T00:33:14.307Z,13.50
2022-08-17T00:35:30.996Z,12.85
2022-08-17T00:38:00.180Z,14.68
2022-08-17T00:40:39.869Z,12.07
2022-08-17T00:43:19.512Z,13.60
2022-08-17T00:45:49.644Z,12.70
2022-08-17T00:48:29.017Z,11.80
2022-08-17T00:51:10.677Z,12.40
2022-08-17T00:53:44.523Z,14.55
2022-08-17T00:56:19.159Z,11.80
2022-08-17T00:58:49.243Z,12.43
2022-08-17T01:01:21.835Z,13.73
2022-08-17T01:03:53.531Z,12.95
2022-08-17T01:06:30.169Z,12.63
2022-08-17T01:09:03.081Z,11.02
2022-08-17T01:11:35.847Z,12.57
2022-08-17T01:14:05.463Z,13.73
2022-08-17T01:16:34.779Z,14.93
2022-08-17T01:19:08.613Z,13.15
2022-08-17T01:21:47.120Z,12.05
2022-08-17T01:24:19.570Z,11.90
2022-08-17T01:26:49.871Z,10.85
2022-08-17T01:29:20.694Z,15.38
2022-08-17T01:31:55.054Z,13.03
2022-08-17T01:34:24.961Z,11.98
2022-08-17T01:39:40.378Z,12.55
2022-08-17T01:42:17.650Z,11.82
2022-08-17T01:44:47.090Z,12.35
2022-08-17T01:47:16.261Z,14.05
2022-08-17T01:49:49.993Z,13.10
2022-08-17T01:52:21.603Z,12.00
2022-08-17T01:54:55.929Z,12.27
2022-08-17T01:57:25.084Z,12.80
2022-08-17T01:59:54.664Z,12.20
2022-08-17T02:02:31.304Z,14.23
2022-08-17T02:05:01.016Z,11.20
2022-08-17T02:07:32.070Z,11.52
2022-08-17T02:10:23.419Z,12.85
2022-08-17T02:12:52.771Z,14.20
2022-08-17T02:15:23.243Z,13.45
2022-08-17T02:17:54.816Z,13.15
2022-08-17T02:20:41.293Z,11.75
2022-08-17T02:23:14.079Z,12.80
2022-08-17T02:25:50.582Z,12.00
2022-08-17T02:28:20.228Z,13.63
2022-08-17T02:30:50.154Z,13.68
2022-08-17T02:33:41.991Z,12.45
2022-08-17T02:36:14.395Z,11.20
2022-08-17T02:38:44.345Z,12.57
2022-08-17T02:41:16.148Z,12.57
2022-08-17T02:43:48.028Z,11.30
2022-08-17T02:46:19.019Z,12.35
2022-08-17T02:48:48.421Z,11.03
2022-08-17T02:51:18.810Z,17.20
2022-08-17T02:53:48.726Z,11.05
2022-08-17T02:56:19.929Z,13.15
2022-08-17T02:58:49.226Z,13.23
2022-08-17T03:01:18.481Z,14.93
2022-08-17T03:03:47.646Z,13.35
2022-08-17T03:06:16.847Z,14.50
2022-08-17T03:08:46.265Z,14.48
2022-08-17T03:11:15.813Z,14.27
2022-08-17T03:13:47.123Z,14.82
2022-08-17T03:16:16.432Z,12.25
2022-08-17T03:18:45.605Z,13.00
2022-08-17T03:21:14.878Z,13.63
2022-08-17T03:23:44.019Z,17.48
2022-08-17T03:26:15.545Z,18.35
2022-08-17T03:28:47.576Z,17.27
2022-08-17T03:31:18.024Z,17.48
2022-08-17T03:33:47.908Z,19.00
2022-08-17T03:36:17.109Z,18.92
2022-08-17T03:38:46.672Z,20.35
2022-08-17T03:41:16.157Z,16.60
2022-08-17T03:43:47.520Z,13.10
2022-08-17T03:46:35.686Z,16.33
2022-08-17T03:49:19.512Z,12.15
2022-08-17T03:52:01.905Z,15.32
2022-08-17T03:54:44.103Z,17.92
2022-08-17T03:57:13.821Z,20.17
2022-08-17T03:59:45.729Z,16.23
2022-08-17T04:02:19.234Z,17.02
2022-08-17T04:04:50.824Z,17.50
2022-08-17T04:07:21.029Z,18.55
2022-08-17T04:09:50.688Z,17.52
2022-08-17T04:12:22.418Z,17.55
2022-08-17T04:14:54.980Z,16.98
2022-08-17T04:17:26.760Z,18.20
2022-08-17T04:19:58.066Z,21.75
2022-08-17T04:22:30.462Z,22.65
2022-08-17T04:25:09.574Z,21.83
2022-08-17T04:27:39.999Z,27.17
2022-08-17T04:30:13.218Z,23.50
2022-08-17T04:33:00.626Z,27.80
2022-08-17T04:35:38.345Z,23.55
2022-08-17T04:38:08.268Z,22.80
2022-08-17T04:40:51.417Z,20.10
2022-08-17T04:43:23.542Z,21.17
2022-08-17T04:45:58.540Z,24.70
2022-08-17T04:48:36.381Z,20.73
2022-08-17T04:51:10.135Z,21.52
2022-08-17T04:53:41.140Z,19.15
2022-08-17T04:56:15.936Z,24.83
2022-08-17T04:58:47.449Z,20.55
2022-08-17T05:01:24.127Z,20.08
2022-08-17T05:03:54.393Z,22.60
2022-08-17T05:06:31.587Z,25.13
2022-08-17T05:09:03.526Z,16.20
2022-08-17T05:11:35.508Z,18.92
2022-08-17T05:14:05.677Z,22.25
2022-08-17T05:16:36.742Z,21.55
2022-08-17T05:19:06.886Z,20.45
2022-08-17T05:21:36.169Z,21.08
2022-08-17T05:24:06.079Z,20.20
2022-08-17T05:26:56.105Z,17.75
2022-08-17T05:29:35.249Z,18.00
2022-08-17T05:32:37.975Z,19.85
2022-08-17T05:35:02.449Z,18.13
2022-08-17T05:37:33.007Z,19.83
2022-08-17T05:40:02.446Z,22.27
2022-08-17T05:42:32.598Z,17.33
2022-08-17T05:45:02.558Z,20.35
2022-08-17T05:47:35.071Z,18.02
2022-08-17T05:50:09.637Z,22.52
2022-08-17T05:52:47.879Z,21.42
2022-08-17T05:55:27.687Z,17.88
2022-08-17T05:58:09.557Z,19.77
2022-08-17T06:00:44.908Z,21.20
2022-08-17T06:03:41.494Z,19.33
2022-08-17T06:06:32.560Z,18.00
2022-08-17T06:09:24.756Z,20.38
2022-08-17T06:11:59.986Z,20.38
2022-08-17T06:14:43.158Z,18.08
2022-08-17T06:17:15.825Z,20.05
2022-08-17T06:19:54.068Z,19.33
2022-08-17T06:22:28.072Z,23.20
2022-08-17T06:25:04.652Z,17.23
2022-08-17T06:27:44.759Z,19.45
2022-08-17T06:30:19.896Z,17.33
2022-08-17T06:32:52.293Z,20.08
2022-08-17T06:35:31.965Z,20.15
2022-08-17T06:38:36.882Z,17.58
2022-08-17T06:41:11.032Z,15.55
2022-08-17T06:43:53.383Z,15.63
2022-08-17T06:46:27.183Z,20.80
2022-08-17T06:49:11.280Z,19.13
2022-08-17T06:51:47.599Z,18.52
2022-08-17T06:54:27.171Z,15.32
2022-08-17T06:57:02.422Z,17.83
2022-08-17T06:59:55.456Z,14.27
2022-08-17T07:02:52.523Z,15.48
2022-08-17T07:05:27.203Z,20.30
2022-08-17T07:08:04.745Z,17.67
2022-08-17T07:10:41.128Z,17.98
2022-08-17T07:13:28.953Z,17.33
2022-08-17T07:16:08.257Z,17.30
2022-08-17T07:18:37.542Z,12.85
2022-08-17T07:21:26.232Z,13.95
2022-08-17T07:24:29.883Z,13.70
2022-08-17T07:27:15.780Z,7.60
2022-08-17T07:29:53.223Z,15.70
2022-08-17T07:32:26.184Z,14.40
2022-08-17T07:35:15.399Z,11.25
2022-08-17T07:37:50.929Z,12.38
2022-08-17T07:40:29.344Z,10.73
2022-08-17T07:43:23.025Z,10.45
2022-08-17T07:46:13.182Z,11.27
2022-08-17T07:48:44.788Z,11.63
2022-08-17T07:51:29.646Z,8.25
2022-08-17T07:54:14.000Z,8.98
2022-08-17T07:56:51.149Z,9.23
2022-08-17T07:59:23.929Z,9.15
2022-08-17T08:02:08.653Z,6.13
2022-08-17T08:04:59.707Z,10.77
2022-08-17T08:07:34.285Z,4.82
2022-08-17T08:10:08.745Z,8.93
2022-08-17T08:12:43.362Z,7.25
2022-08-17T08:15:18.313Z,5.57
2022-08-17T08:17:51.657Z,6.57
2022-08-17T08:20:52.594Z,18.23
2022-08-17T08:23:26.358Z,8.73
2022-08-17T08:26:06.365Z,10.00
2022-08-17T08:28:48.957Z,8.82
2022-08-17T08:31:27.229Z,4.95
2022-08-17T08:34:44.457Z,6.90
2022-08-17T08:37:16.450Z,6.38
2022-08-17T08:39:57.505Z,7.68
2022-08-17T08:42:34.214Z,8.85
2022-08-17T08:45:13.265Z,10.63
2022-08-17T08:48:05.261Z,11.82
2022-08-17T08:50:49.977Z,5.90
2022-08-17T08:53:31.699Z,9.93
2022-08-17T08:56:05.344Z,5.38
2022-08-17T08:58:43.245Z,7.38
2022-08-17T09:01:24.044Z,9.23
2022-08-17T09:04:25.245Z,7.97
2022-08-17T09:07:08.700Z,10.02
2022-08-17T09:09:50.282Z,8.02
2022-08-17T09:12:27.241Z,11.88
2022-08-17T09:15:03.244Z,6.45
2022-08-17T09:17:47.920Z,7.22
2022-08-17T09:20:27.557Z,9.32
2022-08-17T09:23:02.924Z,8.63
2022-08-17T09:25:36.939Z,6.40
2022-08-17T09:28:12.935Z,9.70
2022-08-17T09:30:46.112Z,6.45
2022-08-17T09:33:22.727Z,8.68
2022-08-17T09:35:57.461Z,11.05
2022-08-17T09:38:39.077Z,11.10
2022-08-17T09:41:18.280Z,11.07
2022-08-17T09:43:55.837Z,10.90
2022-08-17T09:46:32.803Z,7.70
2022-08-17T09:49:12.436Z,6.05
2022-08-17T09:51:48.287Z,7.28
2022-08-17T09:54:38.691Z,7.45
2022-08-17T09:57:31.338Z,7.15
2022-08-17T10:00:18.443Z,8.65
2022-08-17T10:03:11.733Z,8.15
2022-08-17T10:05:50.907Z,8.52
2022-08-17T10:08:37.453Z,6.65
2022-08-17T10:11:22.648Z,12.70
2022-08-17T10:14:36.006Z,8.02
2022-08-17T10:17:05.336Z,6.53
2022-08-17T10:19:44.135Z,9.30
2022-08-17T10:22:42.904Z,8.07
2022-08-17T10:25:48.630Z,8.65
2022-08-17T10:28:28.815Z,7.03
2022-08-17T10:31:33.177Z,10.90
2022-08-17T10:34:04.855Z,8.57
2022-08-17T10:36:47.100Z,9.57
2022-08-17T10:39:31.151Z,5.30
2022-08-17T10:42:06.043Z,10.73
2022-08-17T10:44:46.889Z,8.50
2022-08-17T10:47:19.417Z,7.90
2022-08-17T10:49:53.193Z,8.45
2022-08-17T10:52:53.109Z,7.03
2022-08-17T10:55:25.415Z,7.20
2022-08-17T10:58:20.727Z,7.97
2022-08-17T11:01:01.663Z,14.30
2022-08-17T11:03:33.011Z,9.90
2022-08-17T11:09:13.181Z,8.25
2022-08-17T11:12:08.703Z,9.15
2022-08-17T11:14:56.067Z,7.03
2022-08-17T11:17:49.307Z,6.25
2022-08-17T11:20:48.638Z,8.98
2022-08-17T11:23:32.970Z,9.70
2022-08-17T11:26:08.183Z,9.68
2022-08-17T11:28:54.114Z,10.60
2022-08-17T11:31:39.321Z,8.52
2022-08-17T11:34:19.347Z,9.63
2022-08-17T11:37:11.839Z,15.35
2022-08-17T11:40:05.626Z,11.52
2022-08-17T11:42:48.373Z,9.35
2022-08-17T11:45:35.596Z,9.60
2022-08-17T11:48:28.846Z,10.13
2022-08-17T11:51:24.849Z,11.13
2022-08-17T11:54:34.084Z,13.63
2022-08-17T11:57:41.298Z,13.75
2022-08-17T12:00:32.211Z,10.27
2022-08-17T12:03:26.011Z,11.80
2022-08-17T12:06:05.771Z,11.02
2022-08-17T12:08:36.223Z,11.15
2022-08-17T12:11:11.723Z,11.10
2022-08-17T12:13:49.606Z,12.00
2022-08-17T12:16:21.989Z,13.63
2022-08-17T12:18:57.619Z,15.20
2022-08-17T12:21:37.716Z,15.48
2022-08-17T12:24:16.548Z,9.20
2022-08-17T12:26:54.142Z,17.50
2022-08-17T12:29:38.769Z,14.43
2022-08-17T12:32:17.072Z,17.77
2022-08-17T12:34:51.423Z,10.68
2022-08-17T12:37:24.156Z,7.47
2022-08-17T12:39:59.181Z,9.75
2022-08-17T12:42:34.629Z,9.13
2022-08-17T12:45:07.132Z,6.10
2022-08-17T12:47:39.107Z,10.35
2022-08-17T12:57:35.244Z,12.40
2022-08-17T13:00:12.062Z,13.50
2022-08-17T13:02:46.751Z,9.98
2022-08-17T13:05:29.614Z,11.77
2022-08-17T13:08:04.303Z,12.07
2022-08-17T13:10:36.459Z,13.05
2022-08-17T13:13:22.810Z,9.90
2022-08-17T13:15:55.871Z,9.35
2022-08-17T13:18:39.260Z,14.43
2022-08-17T13:21:13.599Z,10.98
2022-08-17T13:23:53.576Z,10.07
2022-08-17T13:26:33.173Z,12.43
2022-08-17T13:29:08.050Z,14.07
2022-08-17T13:31:52.023Z,10.75
2022-08-17T13:35:12.012Z,9.90
2022-08-17T13:37:35.524Z,5.80
2022-08-17T13:40:29.929Z,8.65
2022-08-17T13:43:01.557Z,11.00
2022-08-17T13:45:50.585Z,8.02
2022-08-17T13:48:31.724Z,8.32
2022-08-17T13:51:30.097Z,4.60
2022-08-17T13:54:02.959Z,9.68
2022-08-17T13:56:39.489Z,6.28
2022-08-17T13:59:12.138Z,8.63
2022-08-17T14:01:50.940Z,10.20
2022-08-17T14:06:55.951Z,6.70
2022-08-17T14:09:27.967Z,12.07
2022-08-17T14:11:59.797Z,6.65
2022-08-17T14:14:30.316Z,8.30
2022-08-17T14:17:01.629Z,10.27
2022-08-17T14:19:31.244Z,8.80
2022-08-17T14:22:00.717Z,7.35
2022-08-17T14:24:34.264Z,5.72
2022-08-17T14:27:06.236Z,8.73
2022-08-17T14:29:36.418Z,6.43
2022-08-17T14:32:23.278Z,5.90
2022-08-17T14:34:54.369Z,6.20
2022-08-17T14:37:27.542Z,9.27
2022-08-17T14:39:57.857Z,5.78
2022-08-17T14:42:29.282Z,6.47
2022-08-17T14:44:59.730Z,6.50
2022-08-17T14:47:30.867Z,8.13
2022-08-17T14:50:01.668Z,10.40
2022-08-17T14:52:33.189Z,11.35
2022-08-17T14:55:02.438Z,7.40
2022-08-17T14:57:34.450Z,6.88
2022-08-17T15:00:04.431Z,6.40
2022-08-17T15:02:45.869Z,9.40
2022-08-17T15:05:17.292Z,13.70
2022-08-17T15:07:46.633Z,11.38
2022-08-17T15:10:17.323Z,7.22
2022-08-17T15:12:46.667Z,6.45
2022-08-17T15:15:17.851Z,8.82
2022-08-17T15:20:22.705Z,9.48
2022-08-17T15:22:54.599Z,11.15
2022-08-17T15:25:25.127Z,5.93
2022-08-17T15:27:55.568Z,5.13
2022-08-17T15:30:26.190Z,10.87
2022-08-17T15:32:59.103Z,10.20
2022-08-17T15:35:32.489Z,9.82
2022-08-17T15:38:10.165Z,7.82
2022-08-17T15:40:45.229Z,8.15
2022-08-17T15:43:16.520Z,8.63
2022-08-17T15:45:54.855Z,6.95
2022-08-17T15:48:42.676Z,8.50
2022-08-17T15:51:14.811Z,9.82
2022-08-17T15:53:45.751Z,7.65
2022-08-17T15:56:16.304Z,6.63
2022-08-17T15:58:47.298Z,10.25
2022-08-17T16:03:01.678Z,12.52
2022-08-17T16:04:30.639Z,12.93
2022-08-17T16:07:02.199Z,11.15
2022-08-17T16:09:31.788Z,11.45
2022-08-17T16:12:10.908Z,9.00
2022-08-17T16:14:40.198Z,12.27
2022-08-17T16:17:38.667Z,12.23
2022-08-17T16:20:01.398Z,10.52
2022-08-17T16:22:34.099Z,13.15
2022-08-17T16:25:07.157Z,12.57
2022-08-17T16:27:36.601Z,7.22
2022-08-17T16:30:07.819Z,12.15
2022-08-17T16:32:37.182Z,7.97
2022-08-17T16:35:14.386Z,10.63
2022-08-17T16:37:45.395Z,7.90
2022-08-17T16:40:19.093Z,8.90
2022-08-17T16:42:49.921Z,8.68
2022-08-17T16:45:24.176Z,9.60
2022-08-17T16:47:58.696Z,8.20
2022-08-17T16:50:32.874Z,12.75
2022-08-17T16:53:07.345Z,8.85
2022-08-17T16:55:37.418Z,10.85
2022-08-17T16:58:08.693Z,11.13
2022-08-17T17:03:20.127Z,8.75
2022-08-17T17:06:07.651Z,10.07
2022-08-17T17:08:44.224Z,10.23
2022-08-17T17:11:18.749Z,10.25
2022-08-17T17:13:53.157Z,12.23
2022-08-17T17:16:30.235Z,15.98
2022-08-17T17:19:10.143Z,10.35
2022-08-17T17:21:49.127Z,11.07
2022-08-17T17:24:26.010Z,8.93
2022-08-17T17:27:12.604Z,9.55
2022-08-17T17:29:56.737Z,13.32
2022-08-17T17:32:33.188Z,12.70
2022-08-17T17:35:11.228Z,8.57
2022-08-17T17:37:49.188Z,12.88
2022-08-17T17:40:23.473Z,8.27
2022-08-17T17:42:55.552Z,9.98
2022-08-17T17:45:27.423Z,12.25
2022-08-17T17:47:56.786Z,8.35
2022-08-17T17:50:40.998Z,8.38
2022-08-17T17:53:35.237Z,14.38
2022-08-17T17:56:44.131Z,9.52
2022-08-17T17:59:23.497Z,14.00
2022-08-17T18:02:02.683Z,12.43
2022-08-17T18:04:36.445Z,8.25
2022-08-17T18:07:19.711Z,15.07
2022-08-17T18:10:02.708Z,16.50
2022-08-17T18:12:39.744Z,13.77
2022-08-17T18:15:24.353Z,12.45
2022-08-17T18:18:33.200Z,9.38
2022-08-17T18:21:07.121Z,16.88
2022-08-17T18:23:36.506Z,18.67
2022-08-17T18:26:08.671Z,19.67
2022-08-17T18:28:43.770Z,15.98
2022-08-17T18:31:18.947Z,13.98
2022-08-17T18:33:50.430Z,13.73
2022-08-17T18:39:17.277Z,19.83
2022-08-17T18:41:50.378Z,16.55
2022-08-17T18:44:28.679Z,11.38
2022-08-17T18:47:14.357Z,12.38
2022-08-17T18:49:44.824Z,12.35
2022-08-17T18:52:18.637Z,14.18
2022-08-17T18:55:04.815Z,14.63
2022-08-17T18:57:38.281Z,10.60
2022-08-17T19:00:14.793Z,11.07
2022-08-17T19:02:56.052Z,13.43
2022-08-17T19:05:34.591Z,13.70
2022-08-17T19:08:35.234Z,15.77
2022-08-17T19:11:09.253Z,14.40
2022-08-17T19:13:44.982Z,16.38
2022-08-17T19:16:20.444Z,14.05
2022-08-17T19:18:54.868Z,17.25
2022-08-17T19:21:29.076Z,19.35
2022-08-17T19:24:07.374Z,12.55
2022-08-17T19:26:54.799Z,16.33
2022-08-17T19:29:35.045Z,17.35
2022-08-17T19:32:09.436Z,18.73
2022-08-17T19:34:44.214Z,27.23
2022-08-17T19:37:23.038Z,16.00
2022-08-17T19:40:04.774Z,16.13
2022-08-17T19:42:47.282Z,18.40
2022-08-17T19:45:35.009Z,23.50
2022-08-17T19:48:16.171Z,21.13
2022-08-17T19:50:54.174Z,21.63
2022-08-17T19:54:01.671Z,17.38
2022-08-17T19:56:32.136Z,19.38
2022-08-17T19:59:10.195Z,19.23
2022-08-17T20:01:50.009Z,18.95
2022-08-17T20:04:32.902Z,19.63
2022-08-17T20:07:09.599Z,16.73
2022-08-17T20:09:41.460Z,20.80
2022-08-17T20:12:16.021Z,18.05
2022-08-17T20:14:53.692Z,21.83
2022-08-17T20:17:32.654Z,17.33
2022-08-17T20:20:19.949Z,24.42
2022-08-17T20:22:55.538Z,15.50
2022-08-17T20:25:33.298Z,15.65
2022-08-17T20:28:08.251Z,21.27
2022-08-17T20:30:41.266Z,23.50
2022-08-17T20:33:26.301Z,17.52
2022-08-17T20:36:16.474Z,21.48
2022-08-17T20:38:48.385Z,14.60
2022-08-17T20:41:20.433Z,19.10
2022-08-17T20:44:04.435Z,19.10
2022-08-17T20:46:57.952Z,19.30
2022-08-17T20:49:41.999Z,16.05
2022-08-17T20:52:13.254Z,16.73
2022-08-17T20:54:54.562Z,13.25
2022-08-17T20:57:51.356Z,12.32
2022-08-17T21:00:44.328Z,13.35
2022-08-17T21:03:51.807Z,17.08
2022-08-17T21:06:30.375Z,10.88
2022-08-17T21:09:20.969Z,12.45
2022-08-17T21:12:05.468Z,14.70
2022-08-17T21:14:57.543Z,12.05
2022-08-17T21:17:49.054Z,10.48
2022-08-17T21:20:34.232Z,9.70
2022-08-17T21:23:22.461Z,10.73
2022-08-17T21:26:07.179Z,11.30
2022-08-17T21:29:01.322Z,11.13
2022-08-17T21:31:36.943Z,12.95
2022-08-17T21:34:29.626Z,12.35
2022-08-17T21:37:34.442Z,12.43
2022-08-17T21:40:24.052Z,9.57
2022-08-17T21:42:57.674Z,12.55
2022-08-17T21:45:31.309Z,13.35
2022-08-17T21:48:14.981Z,11.63
2022-08-17T21:50:49.489Z,12.63
2022-08-17T21:53:32.216Z,11.23
2022-08-17T21:56:05.321Z,18.30
2022-08-17T21:58:39.757Z,10.82
2022-08-17T22:01:26.420Z,15.23
2022-08-17T22:04:08.168Z,12.23
2022-08-17T22:06:41.627Z,9.18
2022-08-17T22:09:18.030Z,14.77
2022-08-17T22:11:59.303Z,13.98
2022-08-17T22:14:52.553Z,11.90
2022-08-17T22:17:24.730Z,8.98
2022-08-17T22:19:56.924Z,14.05
2022-08-17T22:22:56.219Z,11.10
2022-08-17T22:25:25.894Z,13.85
2022-08-17T22:28:01.197Z,14.07
2022-08-17T22:30:36.313Z,13.77
2022-08-17T22:33:37.061Z,13.80
2022-08-17T22:36:24.038Z,12.77
2022-08-17T22:38:55.739Z,12.85
2022-08-17T22:41:34.650Z,17.38
2022-08-17T22:44:29.094Z,15.15
2022-08-17T22:47:06.279Z,11.23
2022-08-17T22:49:54.154Z,16.05
2022-08-17T22:52:56.006Z,16.63
2022-08-17T22:55:39.559Z,13.50
2022-08-17T22:58:30.632Z,12.77
2022-08-17T23:01:26.078Z,12.07
2022-08-17T23:03:57.088Z,11.38
2022-08-17T23:06:26.373Z,15.63
2022-08-17T23:08:57.823Z,11.85
2022-08-17T23:11:36.619Z,12.35
2022-08-17T23:14:21.231Z,12.98
2022-08-17T23:16:52.734Z,11.27
2022-08-17T23:19:23.326Z,14.40
2022-08-17T23:21:54.941Z,15.27
2022-08-17T23:26:54.296Z,13.45
2022-08-17T23:29:23.559Z,14.32
2022-08-17T23:31:57.312Z,11.73
2022-08-17T23:34:27.644Z,14.45
2022-08-17T23:36:57.587Z,11.60
2022-08-17T23:39:28.094Z,9.48
2022-08-17T23:41:58.233Z,8.80
2022-08-17T23:44:33.141Z,14.65
2022-08-17T23:47:07.421Z,12.45
2022-08-17T23:49:41.103Z,15.75
2022-08-17T23:52:15.038Z,13.18
2022-08-17T23:54:48.375Z,14.25
2022-08-17T23:57:20.456Z,13.48
